sensor_id;sensor_type;location;lat;lon;timestamp;pressure;altitude;pressure_sealevel;temperature;humidity
6200;BME280;3133;43.214;27.906;2023-04-24T00:00:59;100636.06;;;10.01;100.00
6200;BME280;3133;43.214;27.906;2023-04-24T00:03:26;100615.91;;;9.60;100.00
6200;BME280;3133;43.214;27.906;2023-04-24T00:05:55;100621.97;;;9.57;100.00
6200;BME280;3133;43.214;27.906;2023-04-24T00:08:21;100570.59;;;9.26;100.00
6200;BME280;3133;43.214;27.906;2023-04-24T00:10:49;100608.09;;;9.61;100.00
6200;BME280;3133;43.214;27.906;2023-04-24T00:13:17;100614.22;;;9.68;100.00
6200;BME280;3133;43.214;27.906;2023-04-24T00:15:44;100614.31;;;9.90;100.00
6200;BME280;3133;43.214;27.906;2023-04-24T00:18:12;100612.63;;;10.06;100.00
6200;BME280;3133;43.214;27.906;2023-04-24T00:20:39;100607.50;;;10.17;100.00
6200;BME280;3133;43.214;27.906;2023-04-24T00:23:07;100605.78;;;10.26;100.00
6200;BME280;3133;43.214;27.906;2023-04-24T00:25:34;100593.63;;;10.28;100.00
6200;BME280;3133;43.214;27.906;2023-04-24T00:28:01;100600.59;;;10.38;100.00
6200;BME280;3133;43.214;27.906;2023-04-24T00:30:28;100606.72;;;10.54;100.00
6200;BME280;3133;43.214;27.906;2023-04-24T00:32:55;100608.44;;;10.59;100.00
6200;BME280;3133;43.214;27.906;2023-04-24T00:35:22;100601.50;;;10.64;100.00
6200;BME280;3133;43.214;27.906;2023-04-24T00:37:49;100533.69;;;10.30;100.00
6200;BME280;3133;43.214;27.906;2023-04-24T00:40:17;100604.13;;;10.75;100.00
6200;BME280;3133;43.214;27.906;2023-04-24T00:42:44;100604.97;;;10.78;100.00
6200;BME280;3133;43.214;27.906;2023-04-24T00:45:12;100594.53;;;10.74;100.00
6200;BME280;3133;43.214;27.906;2023-04-24T00:47:39;100578.03;;;10.58;100.00
6200;BME280;3133;43.214;27.906;2023-04-24T00:50:08;100613.66;;;10.65;100.00
6200;BME280;3133;43.214;27.906;2023-04-24T00:52:35;100614.53;;;10.45;100.00
6200;BME280;3133;43.214;27.906;2023-04-24T00:55:02;100599.72;;;10.42;100.00
6200;BME280;3133;43.214;27.906;2023-04-24T00:57:31;100615.38;;;10.54;100.00
6200;BME280;3133;43.214;27.906;2023-04-24T00:59:59;100594.50;;;10.44;100.00
6200;BME280;3133;43.214;27.906;2023-04-24T01:02:26;100617.13;;;10.57;100.00
6200;BME280;3133;43.214;27.906;2023-04-24T01:04:53;100604.09;;;10.51;100.00
6200;BME280;3133;43.214;27.906;2023-04-24T01:07:20;100615.38;;;10.44;100.00
6200;BME280;3133;43.214;27.906;2023-04-24T01:09:48;100618.81;;;10.35;100.00
6200;BME280;3133;43.214;27.906;2023-04-24T01:12:17;100598.84;;;10.30;100.00
6200;BME280;3133;43.214;27.906;2023-04-24T01:14:45;100624.00;;;10.16;100.00
6200;BME280;3133;43.214;27.906;2023-04-24T01:17:12;100614.22;;;9.68;100.00
6200;BME280;3133;43.214;27.906;2023-04-24T01:19:39;100605.53;;;9.67;100.00
6200;BME280;3133;43.214;27.906;2023-04-24T01:22:12;100611.72;;;9.95;100.00
6200;BME280;3133;43.214;27.906;2023-04-24T01:24:40;100521.31;;;9.56;100.00
6200;BME280;3133;43.214;27.906;2023-04-24T01:27:07;100618.81;;;10.16;100.00
6200;BME280;3133;43.214;27.906;2023-04-24T01:29:35;100608.38;;;10.19;100.00
6200;BME280;3133;43.214;27.906;2023-04-24T01:32:02;100562.22;;;9.96;100.00
6200;BME280;3133;43.214;27.906;2023-04-24T01:34:29;100601.44;;;10.24;100.00
6200;BME280;3133;43.214;27.906;2023-04-24T01:36:58;100597.09;;;10.27;100.00
6200;BME280;3133;43.214;27.906;2023-04-24T01:39:26;100601.47;;;10.28;100.00
6200;BME280;3133;43.214;27.906;2023-04-24T01:41:54;100600.56;;;10.29;100.00
6200;BME280;3133;43.214;27.906;2023-04-24T01:44:21;100589.28;;;10.20;100.00
6200;BME280;3133;43.214;27.906;2023-04-24T01:46:48;100590.09;;;10.14;100.00
6200;BME280;3133;43.214;27.906;2023-04-24T01:49:15;100541.38;;;9.84;100.00
6200;BME280;3133;43.214;27.906;2023-04-24T01:51:42;100599.66;;;10.11;100.00
6200;BME280;3133;43.214;27.906;2023-04-24T01:54:09;100601.38;;;10.12;100.00
6200;BME280;3133;43.214;27.906;2023-04-24T01:56:41;100582.22;;;10.03;100.00
6200;BME280;3133;43.214;27.906;2023-04-24T01:59:09;100604.69;;;9.71;100.00
6200;BME280;3133;43.214;27.906;2023-04-24T02:01:37;100588.06;;;9.44;100.00
6200;BME280;3133;43.214;27.906;2023-04-24T02:04:04;100588.03;;;9.39;100.00
6200;BME280;3133;43.214;27.906;2023-04-24T02:06:31;100595.94;;;9.59;100.00
6200;BME280;3133;43.214;27.906;2023-04-24T02:08:58;100592.06;;;8.98;100.00
6200;BME280;3133;43.214;27.906;2023-04-24T02:11:26;100590.34;;;8.95;100.00
6200;BME280;3133;43.214;27.906;2023-04-24T02:13:54;100585.94;;;8.90;100.00
6200;BME280;3133;43.214;27.906;2023-04-24T02:16:21;100581.72;;;9.02;100.00
6200;BME280;3133;43.214;27.906;2023-04-24T02:18:48;100538.28;;;8.88;100.00
6200;BME280;3133;43.214;27.906;2023-04-24T02:21:15;100587.13;;;9.30;100.00
6200;BME280;3133;43.214;27.906;2023-04-24T02:23:41;100580.03;;;9.06;100.00
6200;BME280;3133;43.214;27.906;2023-04-24T02:26:09;100582.59;;;9.03;100.00
6200;BME280;3133;43.214;27.906;2023-04-24T02:28:35;100578.25;;;9.02;100.00
6200;BME280;3133;43.214;27.906;2023-04-24T02:31:04;100579.09;;;8.99;100.00
6200;BME280;3133;43.214;27.906;2023-04-24T02:33:31;100586.00;;;8.93;100.00
6200;BME280;3133;43.214;27.906;2023-04-24T02:35:58;100561.56;;;8.74;100.00
6200;BME280;3133;43.214;27.906;2023-04-24T02:38:25;100581.63;;;8.92;100.00
6200;BME280;3133;43.214;27.906;2023-04-24T02:40:52;100589.44;;;8.93;100.00
6200;BME280;3133;43.214;27.906;2023-04-24T02:43:19;100559.00;;;8.77;100.00
6200;BME280;3133;43.214;27.906;2023-04-24T02:45:46;100586.88;;;8.98;100.00
6200;BME280;3133;43.214;27.906;2023-04-24T02:48:14;100586.91;;;9.01;100.00
6200;BME280;3133;43.214;27.906;2023-04-24T02:50:42;100555.59;;;8.86;100.00
6200;BME280;3133;43.214;27.906;2023-04-24T02:53:10;100586.06;;;9.02;100.00
6200;BME280;3133;43.214;27.906;2023-04-24T02:55:37;100576.53;;;9.04;100.00
6200;BME280;3133;43.214;27.906;2023-04-24T02:58:03;100588.66;;;9.05;100.00
6200;BME280;3133;43.214;27.906;2023-04-24T03:00:31;100586.09;;;9.09;100.00
6200;BME280;3133;43.214;27.906;2023-04-24T03:02:58;100592.16;;;9.08;100.00
6200;BME280;3133;43.214;27.906;2023-04-24T03:05:26;100570.38;;;8.96;100.00
6200;BME280;3133;43.214;27.906;2023-04-24T03:07:53;100567.84;;;9.02;100.00
6200;BME280;3133;43.214;27.906;2023-04-24T03:10:20;100586.97;;;9.10;100.00
6200;BME280;3133;43.214;27.906;2023-04-24T03:12:47;100585.22;;;9.09;100.00
6200;BME280;3133;43.214;27.906;2023-04-24T03:15:14;100467.75;;;8.41;100.00
6200;BME280;3133;43.214;27.906;2023-04-24T03:17:41;100557.41;;;8.97;100.00
6200;BME280;3133;43.214;27.906;2023-04-24T03:20:09;100557.38;;;8.93;100.00
6200;BME280;3133;43.214;27.906;2023-04-24T03:22:37;100590.38;;;9.03;100.00
6200;BME280;3133;43.214;27.906;2023-04-24T03:25:05;100555.59;;;8.86;100.00
6200;BME280;3133;43.214;27.906;2023-04-24T03:27:33;100586.06;;;9.03;100.00
6200;BME280;3133;43.214;27.906;2023-04-24T03:30:00;100584.38;;;9.10;100.00
6200;BME280;3133;43.214;27.906;2023-04-24T03:32:27;100589.63;;;9.17;100.00
6200;BME280;3133;43.214;27.906;2023-04-24T03:34:54;100473.91;;;8.54;100.00
6200;BME280;3133;43.214;27.906;2023-04-24T03:37:21;100561.81;;;9.09;100.00
6200;BME280;3133;43.214;27.906;2023-04-24T03:39:49;100589.66;;;9.23;100.00
6200;BME280;3133;43.214;27.906;2023-04-24T03:42:16;100587.13;;;9.31;100.00
6200;BME280;3133;43.214;27.906;2023-04-24T03:44:43;100442.72;;;8.55;100.00
6200;BME280;3133;43.214;27.906;2023-04-24T03:47:10;100580.25;;;9.42;100.00
6200;BME280;3133;43.214;27.906;2023-04-24T03:49:37;100581.16;;;9.50;100.00
6200;BME280;3133;43.214;27.906;2023-04-24T03:52:04;100587.22;;;9.54;100.00
6200;BME280;3133;43.214;27.906;2023-04-24T03:54:31;100593.34;;;9.59;100.00
6200;BME280;3133;43.214;27.906;2023-04-24T03:56:59;100589.00;;;9.62;100.00
6200;BME280;3133;43.214;27.906;2023-04-24T03:59:26;100589.94;;;9.70;100.00
6200;BME280;3133;43.214;27.906;2023-04-24T04:01:53;100573.44;;;9.71;100.00
6200;BME280;3133;43.214;27.906;2023-04-24T04:04:20;100581.31;;;9.86;100.00
6200;BME280;3133;43.214;27.906;2023-04-24T04:06:47;100567.38;;;9.74;100.00
6200;BME280;3133;43.214;27.906;2023-04-24T04:09:14;100590.91;;;9.99;100.00
6200;BME280;3133;43.214;27.906;2023-04-24T04:11:41;100585.72;;;10.09;100.00
6200;BME280;3133;43.214;27.906;2023-04-24T04:14:09;100523.16;;;9.87;100.00
6200;BME280;3133;43.214;27.906;2023-04-24T04:16:36;100589.31;;;10.35;100.00
6200;BME280;3133;43.214;27.906;2023-04-24T04:19:03;100493.66;;;9.97;100.00
6200;BME280;3133;43.214;27.906;2023-04-24T04:21:30;100585.00;;;10.52;100.00
6200;BME280;3133;43.214;27.906;2023-04-24T04:23:57;100585.88;;;10.70;100.00
6200;BME280;3133;43.214;27.906;2023-04-24T04:26:24;100586.75;;;10.86;100.00
6200;BME280;3133;43.214;27.906;2023-04-24T04:28:52;100560.66;;;10.88;100.00
6200;BME280;3133;43.214;27.906;2023-04-24T04:31:21;100572.81;;;10.99;100.00
6200;BME280;3133;43.214;27.906;2023-04-24T04:33:48;100580.66;;;10.99;100.00
6200;BME280;3133;43.214;27.906;2023-04-24T04:36:15;100565.00;;;10.81;100.00
6200;BME280;3133;43.214;27.906;2023-04-24T04:38:43;100570.22;;;10.89;100.00
6200;BME280;3133;43.214;27.906;2023-04-24T04:41:10;100586.75;;;10.95;100.00
6200;BME280;3133;43.214;27.906;2023-04-24T04:43:37;100587.59;;;11.09;100.00
6200;BME280;3133;43.214;27.906;2023-04-24T04:46:06;100571.94;;;11.03;100.00
6200;BME280;3133;43.214;27.906;2023-04-24T04:48:38;100587.56;;;11.21;100.00
6200;BME280;3133;43.214;27.906;2023-04-24T04:51:05;100584.09;;;11.13;100.00
6200;BME280;3133;43.214;27.906;2023-04-24T04:53:33;100594.53;;;11.13;100.00
6200;BME280;3133;43.214;27.906;2023-04-24T04:56:00;100583.22;;;11.17;100.00
6200;BME280;3133;43.214;27.906;2023-04-24T04:58:27;100570.16;;;11.22;100.00
6200;BME280;3133;43.214;27.906;2023-04-24T05:00:54;100588.41;;;11.46;100.00
6200;BME280;3133;43.214;27.906;2023-04-24T05:03:22;100584.88;;;11.59;100.00
6200;BME280;3133;43.214;27.906;2023-04-24T05:05:51;100586.59;;;11.75;100.00
6200;BME280;3133;43.214;27.906;2023-04-24T05:08:17;100581.25;;;11.96;100.00
6200;BME280;3133;43.214;27.906;2023-04-24T05:10:44;100514.41;;;11.47;100.00
6200;BME280;3133;43.214;27.906;2023-04-24T05:13:11;100587.41;;;11.88;100.00
6200;BME280;3133;43.214;27.906;2023-04-24T05:15:38;100590.03;;;11.85;100.00
6200;BME280;3133;43.214;27.906;2023-04-24T05:18:05;100578.75;;;11.71;100.00
6200;BME280;3133;43.214;27.906;2023-04-24T05:20:32;100593.59;;;11.70;100.00
6200;BME280;3133;43.214;27.906;2023-04-24T05:23:00;100532.72;;;11.39;100.00
6200;BME280;3133;43.214;27.906;2023-04-24T05:25:27;100584.81;;;11.82;100.00
6200;BME280;3133;43.214;27.906;2023-04-24T05:27:54;100587.41;;;11.86;100.00
6200;BME280;3133;43.214;27.906;2023-04-24T05:30:21;100563.97;;;11.71;100.00
6200;BME280;3133;43.214;27.906;2023-04-24T05:32:47;100584.78;;;11.88;100.00
6200;BME280;3133;43.214;27.906;2023-04-24T05:35:14;100586.44;;;12.10;100.00
6200;BME280;3133;43.214;27.906;2023-04-24T05:37:41;100587.25;;;12.24;100.00
6200;BME280;3133;43.214;27.906;2023-04-24T05:40:11;100591.50;;;12.40;100.00
6200;BME280;3133;43.214;27.906;2023-04-24T05:42:37;100562.03;;;12.08;100.00
6200;BME280;3133;43.214;27.906;2023-04-24T05:45:06;100587.13;;;12.41;100.00
6200;BME280;3133;43.214;27.906;2023-04-24T05:47:33;100574.03;;;12.42;100.00
6200;BME280;3133;43.214;27.906;2023-04-24T05:50:00;100587.00;;;12.54;100.00
6200;BME280;3133;43.214;27.906;2023-04-24T05:52:26;100594.66;;;12.86;100.00
6200;BME280;3133;43.214;27.906;2023-04-24T05:54:53;100597.94;;;13.14;100.00
6200;BME280;3133;43.214;27.906;2023-04-24T05:57:22;100598.84;;;13.03;100.00
6200;BME280;3133;43.214;27.906;2023-04-24T05:59:49;100593.25;;;12.35;100.00
6200;BME280;3133;43.214;27.906;2023-04-24T06:02:16;100598.38;;;12.50;100.00
6200;BME280;3133;43.214;27.906;2023-04-24T06:04:43;100593.06;;;12.61;100.00
6200;BME280;3133;43.214;27.906;2023-04-24T06:07:10;100568.59;;;12.69;100.00
6200;BME280;3133;43.214;27.906;2023-04-24T06:09:37;100579.56;;;13.18;100.00
6200;BME280;3133;43.214;27.906;2023-04-24T06:12:04;100566.09;;;12.56;100.00
6200;BME280;3133;43.214;27.906;2023-04-24T06:14:34;100608.56;;;12.86;100.00
6200;BME280;3133;43.214;27.906;2023-04-24T06:17:01;100530.38;;;12.50;100.00
6200;BME280;3133;43.214;27.906;2023-04-24T06:19:28;100528.41;;;12.78;100.00
6200;BME280;3133;43.214;27.906;2023-04-24T06:21:55;100606.25;;;13.55;100.00
6200;BME280;3133;43.214;27.906;2023-04-24T06:24:22;100613.13;;;13.62;100.00
6200;BME280;3133;43.214;27.906;2023-04-24T06:26:53;100611.91;;;13.11;100.00
6200;BME280;3133;43.214;27.906;2023-04-24T06:29:20;100606.75;;;12.97;100.00
6200;BME280;3133;43.214;27.906;2023-04-24T06:31:48;100595.34;;;13.09;100.00
6200;BME280;3133;43.214;27.906;2023-04-24T06:34:15;100612.09;;;13.76;100.00
6200;BME280;3133;43.214;27.906;2023-04-24T06:36:42;100520.31;;;13.82;100.00
6200;BME280;3133;43.214;27.906;2023-04-24T06:39:10;100545.97;;;13.56;100.00
6200;BME280;3133;43.214;27.906;2023-04-24T06:41:37;100613.03;;;14.99;100.00
6200;BME280;3133;43.214;27.906;2023-04-24T06:44:05;100587.22;;;15.71;100.00
6200;BME280;3133;43.214;27.906;2023-04-24T06:46:32;100618.72;;;14.72;100.00
6200;BME280;3133;43.214;27.906;2023-04-24T06:49:00;100616.06;;;14.11;100.00
6200;BME280;3133;43.214;27.906;2023-04-24T06:51:27;100614.88;;;14.36;100.00
6200;BME280;3133;43.214;27.906;2023-04-24T06:53:54;100556.00;;;13.90;100.00
6200;BME280;3133;43.214;27.906;2023-04-24T06:56:22;100624.84;;;14.08;100.00
6200;BME280;3133;43.214;27.906;2023-04-24T06:58:50;100586.78;;;13.75;100.00
6200;BME280;3133;43.214;27.906;2023-04-24T07:01:17;100617.97;;;13.97;100.00
6200;BME280;3133;43.214;27.906;2023-04-24T07:03:44;100613.06;;;13.68;100.00
6200;BME280;3133;43.214;27.906;2023-04-24T07:06:12;100578.53;;;14.06;100.00
6200;BME280;3133;43.214;27.906;2023-04-24T07:08:41;100608.53;;;14.50;100.00
6200;BME280;3133;43.214;27.906;2023-04-24T07:11:09;100613.78;;;14.50;100.00
6200;BME280;3133;43.214;27.906;2023-04-24T07:13:35;100573.22;;;14.09;100.00
6200;BME280;3133;43.214;27.906;2023-04-24T07:16:07;100619.16;;;14.43;100.00
6200;BME280;3133;43.214;27.906;2023-04-24T07:18:33;100554.16;;;13.99;100.00
6200;BME280;3133;43.214;27.906;2023-04-24T07:21:01;100554.66;;;14.25;100.00
6200;BME280;3133;43.214;27.906;2023-04-24T07:23:30;100611.94;;;14.57;100.00
6200;BME280;3133;43.214;27.906;2023-04-24T07:25:57;100616.75;;;14.22;100.00
6200;BME280;3133;43.214;27.906;2023-04-24T07:28:24;100592.47;;;14.09;100.00
6200;BME280;3133;43.214;27.906;2023-04-24T07:30:51;100590.75;;;14.08;100.00
6200;BME280;3133;43.214;27.906;2023-04-24T07:33:19;100518.47;;;13.18;100.00
6200;BME280;3133;43.214;27.906;2023-04-24T07:35:46;100614.78;;;13.70;100.00
6200;BME280;3133;43.214;27.906;2023-04-24T07:38:13;100571.81;;;13.83;100.00
6200;BME280;3133;43.214;27.906;2023-04-24T07:40:41;100560.34;;;13.94;100.00
6200;BME280;3133;43.214;27.906;2023-04-24T07:43:08;100610.00;;;14.70;100.00
6200;BME280;3133;43.214;27.906;2023-04-24T07:45:36;100611.34;;;14.37;100.00
6200;BME280;3133;43.214;27.906;2023-04-24T07:48:03;100619.38;;;14.22;100.00
6200;BME280;3133;43.214;27.906;2023-04-24T07:50:29;100629.16;;;14.12;100.00
6200;BME280;3133;43.214;27.906;2023-04-24T07:52:56;100554.59;;;13.64;100.00
6200;BME280;3133;43.214;27.906;2023-04-24T07:55:23;100631.75;;;14.14;100.00
6200;BME280;3133;43.214;27.906;2023-04-24T07:57:52;100553.16;;;13.38;100.00
6200;BME280;3133;43.214;27.906;2023-04-24T08:00:19;100622.59;;;13.75;100.00
6200;BME280;3133;43.214;27.906;2023-04-24T08:02:46;100569.97;;;13.93;100.00
6200;BME280;3133;43.214;27.906;2023-04-24T08:05:13;100598.81;;;13.92;100.00
6200;BME280;3133;43.214;27.906;2023-04-24T08:07:40;100597.69;;;13.36;100.00
6200;BME280;3133;43.214;27.906;2023-04-24T08:10:09;100628.78;;;13.68;100.00
6200;BME280;3133;43.214;27.906;2023-04-24T08:12:37;100576.91;;;13.20;100.00
6200;BME280;3133;43.214;27.906;2023-04-24T08:15:08;100579.81;;;13.73;100.00
6200;BME280;3133;43.214;27.906;2023-04-24T08:17:35;100635.09;;;13.52;100.00
6200;BME280;3133;43.214;27.906;2023-04-24T08:20:03;100635.31;;;13.31;100.00
6200;BME280;3133;43.214;27.906;2023-04-24T08:22:30;100517.16;;;12.68;100.00
6200;BME280;3133;43.214;27.906;2023-04-24T08:24:59;100510.13;;;12.72;100.00
6200;BME280;3133;43.214;27.906;2023-04-24T08:27:28;100570.94;;;13.05;100.00
6200;BME280;3133;43.214;27.906;2023-04-24T08:29:56;100586.56;;;13.16;100.00
6200;BME280;3133;43.214;27.906;2023-04-24T08:32:25;100626.41;;;13.48;100.00
6200;BME280;3133;43.214;27.906;2023-04-24T08:34:53;100614.56;;;13.02;100.00
6200;BME280;3133;43.214;27.906;2023-04-24T08:37:21;100621.50;;;13.11;100.00
6200;BME280;3133;43.214;27.906;2023-04-24T08:39:49;100580.56;;;13.05;100.00
6200;BME280;3133;43.214;27.906;2023-04-24T08:42:17;100610.22;;;13.01;100.00
6200;BME280;3133;43.214;27.906;2023-04-24T08:44:45;100615.38;;;13.16;100.00
6200;BME280;3133;43.214;27.906;2023-04-24T08:47:12;100621.66;;;12.86;100.00
6200;BME280;3133;43.214;27.906;2023-04-24T08:49:40;100614.75;;;12.81;100.00
6200;BME280;3133;43.214;27.906;2023-04-24T08:52:07;100615.44;;;13.02;100.00
6200;BME280;3133;43.214;27.906;2023-04-24T08:54:34;100534.56;;;12.69;100.00
6200;BME280;3133;43.214;27.906;2023-04-24T08:57:02;100610.19;;;13.02;100.00
6200;BME280;3133;43.214;27.906;2023-04-24T08:59:30;100603.22;;;13.06;100.00
6200;BME280;3133;43.214;27.906;2023-04-24T09:01:57;100608.19;;;13.35;100.00
6200;BME280;3133;43.214;27.906;2023-04-24T09:04:25;100588.53;;;12.85;100.00
6200;BME280;3133;43.214;27.906;2023-04-24T09:06:57;100558.06;;;12.78;100.00
6200;BME280;3133;43.214;27.906;2023-04-24T09:09:25;100605.94;;;12.92;100.00
6200;BME280;3133;43.214;27.906;2023-04-24T09:11:52;100548.44;;;12.83;100.00
6200;BME280;3133;43.214;27.906;2023-04-24T09:14:21;100598.84;;;13.08;100.00
6200;BME280;3133;43.214;27.906;2023-04-24T09:16:49;100598.06;;;12.97;100.00
6200;BME280;3133;43.214;27.906;2023-04-24T09:19:16;100600.59;;;13.03;100.00
6200;BME280;3133;43.214;27.906;2023-04-24T09:21:46;100556.47;;;12.59;100.00
6200;BME280;3133;43.214;27.906;2023-04-24T09:24:17;100548.59;;;12.64;100.00
6200;BME280;3133;43.214;27.906;2023-04-24T09:26:46;100601.44;;;13.08;100.00
6200;BME280;3133;43.214;27.906;2023-04-24T09:29:17;100537.78;;;13.04;100.00
6200;BME280;3133;43.214;27.906;2023-04-24T09:31:44;100509.72;;;13.17;100.00
6200;BME280;3133;43.214;27.906;2023-04-24T09:34:12;100514.22;;;13.03;100.00
6200;BME280;3133;43.214;27.906;2023-04-24T09:36:41;100574.13;;;13.38;100.00
6200;BME280;3133;43.214;27.906;2023-04-24T09:39:11;100573.06;;;13.54;100.00
6200;BME280;3133;43.214;27.906;2023-04-24T09:41:45;100612.81;;;13.91;100.00
6200;BME280;3133;43.214;27.906;2023-04-24T09:44:14;100580.63;;;13.78;100.00
6200;BME280;3133;43.214;27.906;2023-04-24T09:46:41;100605.91;;;13.82;100.00
6200;BME280;3133;43.214;27.906;2023-04-24T09:49:12;100593.63;;;13.85;100.00
6200;BME280;3133;43.214;27.906;2023-04-24T09:51:40;100565.97;;;13.63;100.00
6200;BME280;3133;43.214;27.906;2023-04-24T09:54:14;100537.28;;;13.51;100.00
6200;BME280;3133;43.214;27.906;2023-04-24T09:56:44;100585.53;;;14.05;100.00
6200;BME280;3133;43.214;27.906;2023-04-24T09:59:12;100514.59;;;13.49;100.00
6200;BME280;3133;43.214;27.906;2023-04-24T10:01:39;100580.84;;;14.27;100.00
6200;BME280;3133;43.214;27.906;2023-04-24T10:04:19;100540.00;;;14.09;100.00
6200;BME280;3133;43.214;27.906;2023-04-24T10:06:48;100593.91;;;14.34;100.00
6200;BME280;3133;43.214;27.906;2023-04-24T10:09:16;100529.09;;;13.77;100.00
6200;BME280;3133;43.214;27.906;2023-04-24T10:11:46;100567.72;;;14.31;100.00
6200;BME280;3133;43.214;27.906;2023-04-24T10:14:14;100533.13;;;14.04;100.00
6200;BME280;3133;43.214;27.906;2023-04-24T10:16:42;100589.06;;;14.01;100.00
6200;BME280;3133;43.214;27.906;2023-04-24T10:19:09;100580.56;;;13.84;100.00
6200;BME280;3133;43.214;27.906;2023-04-24T10:21:40;100484.97;;;13.44;100.00
6200;BME280;3133;43.214;27.906;2023-04-24T10:24:12;100576.00;;;13.98;100.00
6200;BME280;3133;43.214;27.906;2023-04-24T10:26:40;100579.03;;;13.65;100.00
6200;BME280;3133;43.214;27.906;2023-04-24T10:29:10;100571.38;;;13.47;100.00
6200;BME280;3133;43.214;27.906;2023-04-24T10:31:38;100573.19;;;13.43;100.00
6200;BME280;3133;43.214;27.906;2023-04-24T10:34:08;100579.00;;;13.68;100.00
6200;BME280;3133;43.214;27.906;2023-04-24T10:36:38;100546.84;;;13.54;100.00
6200;BME280;3133;43.214;27.906;2023-04-24T10:39:08;100564.28;;;13.56;100.00
6200;BME280;3133;43.214;27.906;2023-04-24T10:41:37;100535.38;;;13.64;100.00
6200;BME280;3133;43.214;27.906;2023-04-24T10:44:05;100543.16;;;13.71;100.00
6200;BME280;3133;43.214;27.906;2023-04-24T10:46:34;100562.63;;;14.18;100.00
6200;BME280;3133;43.214;27.906;2023-04-24T10:49:03;100570.38;;;14.30;100.00
6200;BME280;3133;43.214;27.906;2023-04-24T10:51:48;100569.50;;;14.26;100.00
6200;BME280;3133;43.214;27.906;2023-04-24T10:54:23;100505.41;;;13.84;100.00
6200;BME280;3133;43.214;27.906;2023-04-24T10:56:50;100570.53;;;14.13;100.00
6200;BME280;3133;43.214;27.906;2023-04-24T10:59:24;100569.72;;;14.10;100.00
6200;BME280;3133;43.214;27.906;2023-04-24T11:01:54;100562.00;;;13.99;100.00
6200;BME280;3133;43.214;27.906;2023-04-24T11:04:32;100567.53;;;13.76;100.00
6200;BME280;3133;43.214;27.906;2023-04-24T11:07:01;100473.41;;;12.82;100.00
6200;BME280;3133;43.214;27.906;2023-04-24T11:09:30;100524.50;;;13.24;100.00
6200;BME280;3133;43.214;27.906;2023-04-24T11:12:05;100555.50;;;13.60;100.00
6200;BME280;3133;43.214;27.906;2023-04-24T11:15:00;100452.25;;;13.06;100.00
6200;BME280;3133;43.214;27.906;2023-04-24T11:17:32;100551.00;;;13.73;100.00
6200;BME280;3133;43.214;27.906;2023-04-24T11:20:03;100541.38;;;13.73;100.00
6200;BME280;3133;43.214;27.906;2023-04-24T11:22:33;100540.00;;;13.44;100.00
6200;BME280;3133;43.214;27.906;2023-04-24T11:25:01;100530.72;;;13.85;100.00
6200;BME280;3133;43.214;27.906;2023-04-24T11:27:30;100549.78;;;14.00;100.00
6200;BME280;3133;43.214;27.906;2023-04-24T11:30:03;100539.19;;;14.06;100.00
6200;BME280;3133;43.214;27.906;2023-04-24T11:32:35;100546.19;;;14.05;100.00
6200;BME280;3133;43.214;27.906;2023-04-24T11:35:04;100545.69;;;13.77;100.00
6200;BME280;3133;43.214;27.906;2023-04-24T11:37:35;100543.00;;;13.07;100.00
6200;BME280;3133;43.214;27.906;2023-04-24T11:40:03;100496.03;;;12.89;100.00
6200;BME280;3133;43.214;27.906;2023-04-24T11:42:34;100516.91;;;12.95;100.00
6200;BME280;3133;43.214;27.906;2023-04-24T11:45:01;100536.72;;;13.24;100.00
6200;BME280;3133;43.214;27.906;2023-04-24T11:47:31;100488.03;;;13.04;100.00
6200;BME280;3133;43.214;27.906;2023-04-24T11:49:59;100433.78;;;12.32;100.00
6200;BME280;3133;43.214;27.906;2023-04-24T11:52:27;100429.06;;;12.70;100.00
6200;BME280;3133;43.214;27.906;2023-04-24T11:54:54;100529.50;;;13.45;100.00
6200;BME280;3133;43.214;27.906;2023-04-24T11:57:22;100512.28;;;13.22;100.00
6200;BME280;3133;43.214;27.906;2023-04-24T11:59:50;100528.91;;;13.21;100.00
6200;BME280;3133;43.214;27.906;2023-04-24T12:02:21;100519.41;;;13.11;100.00
6200;BME280;3133;43.214;27.906;2023-04-24T12:04:50;100516.66;;;13.23;100.00
6200;BME280;3133;43.214;27.906;2023-04-24T12:07:17;100513.66;;;13.54;100.00
6200;BME280;3133;43.214;27.906;2023-04-24T12:09:45;100468.75;;;13.13;100.00
6200;BME280;3133;43.214;27.906;2023-04-24T12:12:12;100474.41;;;12.69;100.00
6200;BME280;3133;43.214;27.906;2023-04-24T12:14:44;100499.56;;;12.85;100.00
6200;BME280;3133;43.214;27.906;2023-04-24T12:17:11;100441.19;;;12.76;100.00
6200;BME280;3133;43.214;27.906;2023-04-24T12:19:38;100490.66;;;13.01;100.00
6200;BME280;3133;43.214;27.906;2023-04-24T12:22:06;100494.13;;;13.10;100.00
6200;BME280;3133;43.214;27.906;2023-04-24T12:24:33;100496.91;;;12.87;100.00
6200;BME280;3133;43.214;27.906;2023-04-24T12:27:00;100493.44;;;12.88;100.00
6200;BME280;3133;43.214;27.906;2023-04-24T12:29:27;100486.69;;;12.64;100.00
6200;BME280;3133;43.214;27.906;2023-04-24T12:31:54;100482.34;;;12.59;100.00
6200;BME280;3133;43.214;27.906;2023-04-24T12:34:23;100485.88;;;12.56;100.00
6200;BME280;3133;43.214;27.906;2023-04-24T12:36:55;100485.69;;;12.76;100.00
6200;BME280;3133;43.214;27.906;2023-04-24T12:39:25;100479.28;;;13.08;100.00
6200;BME280;3133;43.214;27.906;2023-04-24T12:41:55;100416.94;;;12.59;100.00
6200;BME280;3133;43.214;27.906;2023-04-24T12:44:31;100479.25;;;13.10;100.00
6200;BME280;3133;43.214;27.906;2023-04-24T12:46:59;100469.41;;;13.33;100.00
6200;BME280;3133;43.214;27.906;2023-04-24T12:49:26;100471.00;;;13.43;100.00
6200;BME280;3133;43.214;27.906;2023-04-24T12:51:54;100473.16;;;13.10;100.00
6200;BME280;3133;43.214;27.906;2023-04-24T12:54:20;100461.59;;;13.29;100.00
6200;BME280;3133;43.214;27.906;2023-04-24T12:56:49;100367.88;;;12.80;100.00